createdAt,value
2018-09-08T00:02:06.493Z,8.40
2018-09-08T00:04:36.200Z,8.53
2018-09-08T00:07:39.803Z,7.83
2018-09-08T00:10:11.152Z,8.47
2018-09-08T00:12:40.845Z,7.93
2018-09-08T00:15:15.467Z,8.87
2018-09-08T00:17:50.199Z,7.90
2018-09-08T00:20:25.152Z,7.97
2018-09-08T00:22:59.906Z,8.10
2018-09-08T00:25:34.688Z,8.60
2018-09-08T00:28:09.021Z,8.13
2018-09-08T00:30:38.824Z,9.40
2018-09-08T00:33:08.579Z,8.33
2018-09-08T00:35:38.234Z,8.50
2018-09-08T00:38:07.720Z,8.67
2018-09-08T00:40:37.400Z,8.70
2018-09-08T00:43:07.062Z,8.43
2018-09-08T00:45:36.724Z,9.03
2018-09-08T00:48:06.277Z,9.23
2018-09-08T00:50:35.999Z,8.53
2018-09-08T00:53:05.748Z,9.60
2018-09-08T00:55:35.367Z,9.10
2018-09-08T00:58:05.075Z,8.63
2018-09-08T01:00:34.727Z,9.43
2018-09-08T01:03:04.504Z,8.53
2018-09-08T01:05:34.144Z,8.97
2018-09-08T01:08:03.825Z,8.63
2018-09-08T01:10:33.640Z,9.10
2018-09-08T01:13:03.172Z,9.30
2018-09-08T01:15:32.648Z,8.30
2018-09-08T01:18:02.337Z,8.40
2018-09-08T01:20:32.211Z,9.27
2018-09-08T01:23:01.996Z,9.70
2018-09-08T01:25:31.824Z,8.87
2018-09-08T01:28:01.392Z,9.13
2018-09-08T01:30:31.140Z,9.70
2018-09-08T01:33:00.722Z,9.90
2018-09-08T01:35:30.506Z,10.07
2018-09-08T01:38:00.168Z,9.20
2018-09-08T01:40:30.032Z,9.67
2018-09-08T01:42:59.692Z,9.70
2018-09-08T01:45:29.388Z,9.50
2018-09-08T01:47:59.067Z,10.13
2018-09-08T01:50:28.695Z,9.50
2018-09-08T01:52:58.432Z,9.50
2018-09-08T01:55:28.132Z,9.50
2018-09-08T01:57:57.728Z,10.10
2018-09-08T02:00:27.416Z,11.13
2018-09-08T02:02:57.055Z,11.00
2018-09-08T02:05:26.828Z,10.40
2018-09-08T02:07:56.393Z,9.60
2018-09-08T02:10:26.064Z,11.00
2018-09-08T02:12:55.759Z,10.90
2018-09-08T02:15:25.475Z,11.80
2018-09-08T02:17:55.275Z,10.07
2018-09-08T02:20:25.000Z,10.93
2018-09-08T02:22:54.787Z,10.90
2018-09-08T02:25:24.531Z,10.00
2018-09-08T02:27:54.228Z,12.07
2018-09-08T02:30:23.866Z,10.40
2018-09-08T02:32:53.447Z,10.47
2018-09-08T02:35:23.079Z,9.27
2018-09-08T02:37:52.703Z,12.47
2018-09-08T02:40:22.379Z,10.20
2018-09-08T02:42:52.084Z,13.90
2018-09-08T02:45:21.732Z,11.83
2018-09-08T02:47:51.457Z,10.83
2018-09-08T02:50:39.721Z,11.40
2018-09-08T02:53:09.703Z,10.40
2018-09-08T02:55:37.981Z,9.87
2018-09-08T02:58:06.054Z,11.40
2018-09-08T03:00:34.434Z,11.77
2018-09-08T03:03:02.341Z,10.17
2018-09-08T03:05:30.470Z,11.87
2018-09-08T03:07:58.472Z,12.17
2018-09-08T03:10:26.443Z,10.10
2018-09-08T03:12:54.408Z,10.30
2018-09-08T03:15:22.342Z,9.60
2018-09-08T03:17:50.346Z,11.00
2018-09-08T03:20:18.312Z,9.50
2018-09-08T03:22:46.279Z,9.10
2018-09-08T03:25:14.324Z,9.50
2018-09-08T03:27:42.324Z,9.70
2018-09-08T03:30:10.372Z,9.67
2018-09-08T03:32:38.439Z,9.10
2018-09-08T03:35:10.701Z,9.60
2018-09-08T03:37:42.225Z,9.43
2018-09-08T03:40:16.018Z,8.87
2018-09-08T03:42:46.063Z,9.63
2018-09-08T03:45:14.332Z,9.43
2018-09-08T03:47:42.327Z,9.23
2018-09-08T03:50:10.398Z,10.10
2018-09-08T03:52:38.400Z,9.63
2018-09-08T03:55:06.440Z,10.07
2018-09-08T03:57:34.404Z,10.23
2018-09-08T04:00:02.479Z,9.80
2018-09-08T04:02:30.475Z,9.60
2018-09-08T04:05:00.154Z,9.43
2018-09-08T04:07:29.932Z,8.60
2018-09-08T04:09:59.620Z,8.50
2018-09-08T04:12:29.391Z,8.30
2018-09-08T04:14:59.148Z,8.80
2018-09-08T04:17:28.900Z,9.30
2018-09-08T04:19:58.661Z,10.27
2018-09-08T04:22:33.653Z,10.27
2018-09-08T04:25:04.041Z,9.57
2018-09-08T04:27:33.731Z,9.03
2018-09-08T04:30:03.484Z,9.37
2018-09-08T04:32:33.153Z,9.00
2018-09-08T04:35:02.788Z,9.53
2018-09-08T04:37:32.383Z,9.07
2018-09-08T04:40:02.091Z,9.40
2018-09-08T04:42:31.849Z,9.00
2018-09-08T04:45:01.610Z,8.43
2018-09-08T04:47:31.295Z,8.97
2018-09-08T04:50:00.855Z,8.80
2018-09-08T04:52:30.481Z,8.70
2018-09-08T04:55:00.190Z,9.43
2018-09-08T04:57:29.942Z,8.40
2018-09-08T04:59:59.699Z,9.03
2018-09-08T05:02:29.538Z,7.67
2018-09-08T05:04:59.104Z,8.20
2018-09-08T05:07:28.744Z,8.67
2018-09-08T05:09:58.321Z,8.57
2018-09-08T05:12:27.947Z,8.13
2018-09-08T05:14:57.461Z,7.83
2018-09-08T05:17:27.224Z,8.20
2018-09-08T05:19:57.244Z,7.97
2018-09-08T05:22:26.897Z,7.33
2018-09-08T05:24:56.573Z,8.77
2018-09-08T05:27:26.270Z,8.50
2018-09-08T05:29:55.916Z,7.30
2018-09-08T05:32:25.598Z,8.90
2018-09-08T05:34:55.429Z,9.37
2018-09-08T05:37:25.085Z,7.60
2018-09-08T05:39:55.013Z,8.40
2018-09-08T05:42:24.629Z,7.30
2018-09-08T05:44:54.333Z,7.83
2018-09-08T05:47:24.084Z,8.70
2018-09-08T05:49:53.580Z,8.50
2018-09-08T05:52:23.256Z,7.93
2018-09-08T05:54:52.920Z,8.30
2018-09-08T05:57:22.725Z,8.50
2018-09-08T05:59:53.046Z,8.30
2018-09-08T06:02:22.860Z,8.10
2018-09-08T06:04:52.580Z,9.83
2018-09-08T06:07:22.336Z,8.83
2018-09-08T06:09:51.976Z,8.20
2018-09-08T06:12:21.701Z,8.37
2018-09-08T06:14:51.365Z,7.73
2018-09-08T06:17:21.144Z,8.03
2018-09-08T06:19:51.026Z,7.97
2018-09-08T06:22:20.745Z,8.77
2018-09-08T06:24:50.791Z,7.70
2018-09-08T06:27:20.457Z,7.07
2018-09-08T06:29:50.184Z,9.27
2018-09-08T06:32:19.885Z,8.70
2018-09-08T06:34:51.661Z,9.80
2018-09-08T06:37:21.433Z,9.30
2018-09-08T06:39:51.061Z,9.90
2018-09-08T06:42:20.987Z,7.13
2018-09-08T06:44:50.728Z,9.20
2018-09-08T06:47:20.461Z,10.30
2018-09-08T06:49:50.118Z,11.30
2018-09-08T06:52:19.951Z,9.90
2018-09-08T06:54:49.633Z,10.67
2018-09-08T06:57:19.284Z,10.70
2018-09-08T06:59:48.908Z,10.40
2018-09-08T07:02:18.549Z,8.77
2018-09-08T07:04:48.149Z,10.40
2018-09-08T07:07:17.836Z,9.50
2018-09-08T07:09:47.583Z,10.60
2018-09-08T07:12:17.353Z,10.27
2018-09-08T07:14:47.017Z,10.60
2018-09-08T07:17:16.675Z,9.10
2018-09-08T07:19:46.382Z,8.00
2018-09-08T07:22:16.127Z,9.67
2018-09-08T07:24:45.819Z,8.80
2018-09-08T07:27:15.564Z,8.90
2018-09-08T07:29:45.304Z,10.33
2018-09-08T07:32:15.078Z,8.43
2018-09-08T07:34:45.106Z,10.33
2018-09-08T07:37:14.849Z,8.77
2018-09-08T07:39:44.662Z,9.53
2018-09-08T07:42:14.440Z,8.97
2018-09-08T07:44:44.011Z,8.93
2018-09-08T07:47:13.705Z,7.83
2018-09-08T07:49:43.452Z,7.20
2018-09-08T07:52:13.129Z,8.07
2018-09-08T07:54:42.757Z,7.50
2018-09-08T07:57:12.285Z,8.13
2018-09-08T07:59:42.044Z,7.07
2018-09-08T08:02:11.692Z,7.37
2018-09-08T08:04:41.276Z,8.07
2018-09-08T08:07:13.704Z,8.37
2018-09-08T08:09:44.692Z,8.10
2018-09-08T08:12:14.690Z,7.83
2018-09-08T08:14:44.249Z,8.10
2018-09-08T08:17:14.066Z,9.00
2018-09-08T08:19:43.920Z,8.50
2018-09-08T08:22:13.552Z,6.83
2018-09-08T08:24:43.359Z,7.03
2018-09-08T08:27:13.244Z,7.20
2018-09-08T08:29:43.017Z,7.40
2018-09-08T08:32:12.937Z,6.67
2018-09-08T08:34:42.516Z,5.90
2018-09-08T08:37:12.424Z,6.17
2018-09-08T08:39:42.219Z,7.60
2018-09-08T08:42:11.980Z,7.20
2018-09-08T08:44:41.364Z,6.80
2018-09-08T08:47:11.276Z,6.17
2018-09-08T08:49:41.028Z,5.50
2018-09-08T08:52:21.908Z,5.87
2018-09-08T08:54:55.193Z,5.45
2018-09-08T08:57:24.569Z,5.42
2018-09-08T08:59:53.951Z,4.62
2018-09-08T09:02:23.333Z,5.40
2018-09-08T09:04:52.764Z,4.80
2018-09-08T09:07:22.132Z,5.20
2018-09-08T09:09:51.482Z,4.95
2018-09-08T09:12:20.854Z,5.30
2018-09-08T09:14:50.227Z,4.93
2018-09-08T09:17:19.597Z,5.22
2018-09-08T09:19:59.696Z,5.63
2018-09-08T09:22:39.580Z,5.70
2018-09-08T09:25:09.892Z,6.47
2018-09-08T09:27:41.178Z,5.57
2018-09-08T09:30:11.000Z,6.30
2018-09-08T09:32:40.364Z,5.37
2018-09-08T09:35:11.380Z,4.85
2018-09-08T09:37:40.823Z,36.17
2018-09-08T09:40:11.210Z,6.17
2018-09-08T09:42:40.570Z,4.58
2018-09-08T09:45:10.645Z,5.42
2018-09-08T09:47:40.035Z,5.40
2018-09-08T09:50:10.786Z,5.45
2018-09-08T09:52:40.417Z,4.67
2018-09-08T09:55:09.923Z,4.22
2018-09-08T09:57:39.337Z,7.95
2018-09-08T10:00:10.224Z,5.30
2018-09-08T10:02:41.948Z,5.35
2018-09-08T10:05:12.874Z,4.95
2018-09-08T10:07:42.296Z,4.28
2018-09-08T10:10:13.541Z,4.15
2018-09-08T10:12:42.945Z,3.75
2018-09-08T10:15:12.462Z,4.25
2018-09-08T10:17:42.680Z,4.03
2018-09-08T10:20:14.989Z,3.47
2018-09-08T10:22:44.425Z,3.97
2018-09-08T10:25:15.245Z,4.27
2018-09-08T10:27:45.246Z,4.43
2018-09-08T10:30:15.032Z,4.07
2018-09-08T10:32:45.156Z,3.70
2018-09-08T10:35:14.763Z,4.33
2018-09-08T10:37:44.145Z,4.13
2018-09-08T10:40:14.123Z,4.47
2018-09-08T10:42:43.756Z,4.10
2018-09-08T10:45:13.175Z,4.73
2018-09-08T10:47:42.682Z,4.23
2018-09-08T10:50:12.731Z,4.50
2018-09-08T10:52:45.583Z,4.30
2018-09-08T10:55:14.952Z,3.80
2018-09-08T10:57:44.319Z,4.10
2018-09-08T11:00:14.029Z,3.87
2018-09-08T11:02:43.559Z,3.73
2018-09-08T11:05:12.822Z,3.80
2018-09-08T11:07:42.185Z,3.63
2018-09-08T11:10:11.620Z,4.20
2018-09-08T11:12:40.985Z,3.80
2018-09-08T11:15:10.894Z,3.83
2018-09-08T11:17:40.317Z,4.00
2018-09-08T11:20:09.874Z,4.10
2018-09-08T11:22:39.240Z,3.67
2018-09-08T11:25:08.630Z,3.60
2018-09-08T11:27:38.068Z,3.70
2018-09-08T11:30:08.207Z,3.80
2018-09-08T11:32:37.568Z,3.90
2018-09-08T11:35:06.957Z,3.63
2018-09-08T11:37:36.349Z,3.20
2018-09-08T11:40:05.799Z,3.37
2018-09-08T11:42:35.216Z,3.47
2018-09-08T11:45:04.612Z,3.90
2018-09-08T11:47:33.969Z,3.40
2018-09-08T11:50:03.337Z,4.10
2018-09-08T11:52:32.697Z,3.13
2018-09-08T11:55:02.071Z,4.00
2018-09-08T11:57:31.425Z,4.40
2018-09-08T12:00:00.815Z,4.20
2018-09-08T12:02:30.248Z,4.33
2018-09-08T12:04:59.657Z,4.63
2018-09-08T12:07:29.025Z,4.60
2018-09-08T12:09:58.408Z,4.90
2018-09-08T12:12:27.915Z,6.30
2018-09-08T12:14:57.289Z,4.40
2018-09-08T12:17:27.383Z,4.53
2018-09-08T12:19:56.912Z,3.40
2018-09-08T12:22:27.831Z,3.53
2018-09-08T12:24:57.272Z,4.00
2018-09-08T12:27:26.701Z,3.90
2018-09-08T12:29:56.148Z,4.27
2018-09-08T12:32:25.650Z,5.00
2018-09-08T12:34:54.973Z,5.27
2018-09-08T12:37:24.357Z,4.93
2018-09-08T12:39:53.734Z,4.90
2018-09-08T12:42:23.094Z,5.40
2018-09-08T12:44:52.484Z,4.40
2018-09-08T12:47:21.884Z,5.17
2018-09-08T12:49:51.257Z,4.30
2018-09-08T12:52:20.625Z,4.23
2018-09-08T12:54:50.269Z,8.27
2018-09-08T12:57:19.632Z,8.23
2018-09-08T12:59:49.001Z,5.83
2018-09-08T13:02:18.398Z,4.20
2018-09-08T13:04:47.783Z,4.23
2018-09-08T13:07:17.142Z,4.67
2018-09-08T13:09:46.512Z,4.70
2018-09-08T13:12:15.887Z,4.43
2018-09-08T13:14:45.265Z,4.13
2018-09-08T13:17:14.637Z,4.10
2018-09-08T13:19:43.980Z,4.90
2018-09-08T13:22:13.369Z,3.73
2018-09-08T13:24:42.786Z,4.20
2018-09-08T13:27:12.290Z,3.40
2018-09-08T13:29:41.695Z,4.00
2018-09-08T13:32:11.070Z,3.80
2018-09-08T13:34:40.436Z,4.03
2018-09-08T13:37:09.800Z,4.07
2018-09-08T13:39:39.195Z,4.30
2018-09-08T13:42:08.646Z,4.57
2018-09-08T13:44:38.037Z,4.00
2018-09-08T13:47:07.477Z,4.10
2018-09-08T13:49:36.796Z,3.67
2018-09-08T13:52:06.198Z,3.73
2018-09-08T13:54:35.632Z,4.60
2018-09-08T13:57:05.030Z,3.97
2018-09-08T13:59:34.512Z,4.00
2018-09-08T14:02:03.876Z,4.37
2018-09-08T14:04:33.237Z,3.80
2018-09-08T14:07:02.617Z,4.10
2018-09-08T14:09:31.972Z,3.43
2018-09-08T14:12:01.398Z,3.93
2018-09-08T14:14:30.765Z,3.53
2018-09-08T14:17:00.236Z,3.70
2018-09-08T14:19:29.591Z,4.57
2018-09-08T14:21:59.136Z,3.87
2018-09-08T14:24:28.513Z,3.93
2018-09-08T14:26:58.943Z,3.30
2018-09-08T14:29:28.312Z,5.20
2018-09-08T14:31:57.670Z,3.87
2018-09-08T14:34:27.034Z,4.40
2018-09-08T14:36:56.417Z,3.60
2018-09-08T14:39:25.791Z,4.20
2018-09-08T14:41:55.209Z,4.07
2018-09-08T14:44:24.602Z,4.07
2018-09-08T14:46:54.016Z,4.80
2018-09-08T14:49:23.389Z,4.57
2018-09-08T14:51:52.748Z,4.00
2018-09-08T14:54:22.136Z,4.00
2018-09-08T14:56:51.541Z,3.80
2018-09-08T14:59:20.907Z,4.10
2018-09-08T15:01:50.300Z,4.23
2018-09-08T15:04:19.649Z,3.80
2018-09-08T15:06:49.041Z,4.50
2018-09-08T15:09:18.396Z,3.70
2018-09-08T15:11:47.780Z,3.50
2018-09-08T15:14:17.136Z,4.23
2018-09-08T15:16:46.520Z,3.63
2018-09-08T15:19:15.864Z,3.83
2018-09-08T15:21:45.223Z,3.63
2018-09-08T15:24:14.634Z,3.80
2018-09-08T15:26:44.013Z,3.83
2018-09-08T15:29:13.372Z,3.87
2018-09-08T15:31:42.745Z,4.90
2018-09-08T15:34:12.102Z,3.00
2018-09-08T15:36:41.528Z,3.97
2018-09-08T15:39:10.904Z,4.47
2018-09-08T15:41:40.260Z,3.77
2018-09-08T15:44:16.009Z,3.80
2018-09-08T15:46:48.125Z,4.03
2018-09-08T15:49:21.221Z,4.20
2018-09-08T15:51:54.684Z,4.10
2018-09-08T15:54:25.998Z,3.73
2018-09-08T15:57:03.187Z,3.23
2018-09-08T15:59:32.556Z,4.13
2018-09-08T16:02:01.941Z,3.53
2018-09-08T16:04:35.237Z,4.50
2018-09-08T16:07:06.883Z,3.90
2018-09-08T16:09:39.293Z,3.60
2018-09-08T16:12:11.913Z,3.63
2018-09-08T16:14:44.365Z,4.30
2018-09-08T16:17:16.828Z,3.50
2018-09-08T16:19:52.043Z,3.83
2018-09-08T16:22:21.408Z,5.40
2018-09-08T16:24:50.781Z,6.30
2018-09-08T16:27:20.149Z,6.47
2018-09-08T16:29:49.517Z,4.97
2018-09-08T16:32:18.912Z,4.47
2018-09-08T16:34:48.316Z,3.93
2018-09-08T16:37:17.697Z,4.17
2018-09-08T16:39:47.064Z,4.77
2018-09-08T16:42:16.493Z,4.27
2018-09-08T16:44:50.492Z,4.40
2018-09-08T16:47:19.864Z,4.23
2018-09-08T16:49:49.216Z,4.20
2018-09-08T16:52:24.456Z,4.30
2018-09-08T16:54:53.857Z,4.30
2018-09-08T16:57:23.284Z,4.40
2018-09-08T16:59:52.653Z,4.33
2018-09-08T17:02:22.026Z,4.90
2018-09-08T17:04:51.375Z,5.67
2018-09-08T17:07:20.769Z,4.10
2018-09-08T17:09:54.066Z,4.30
2018-09-08T17:12:25.909Z,5.10
2018-09-08T17:14:58.384Z,4.03
2018-09-08T17:17:31.037Z,4.23
2018-09-08T17:20:00.421Z,4.70
2018-09-08T17:22:36.838Z,4.87
2018-09-08T17:25:12.528Z,4.83
2018-09-08T17:27:49.530Z,4.80
2018-09-08T17:30:19.465Z,4.53
2018-09-08T17:32:51.451Z,4.83
2018-09-08T17:35:25.444Z,5.20
2018-09-08T17:37:57.059Z,4.50
2018-09-08T17:40:33.496Z,4.53
2018-09-08T17:43:07.386Z,7.63
2018-09-08T17:45:40.307Z,8.77
2018-09-08T17:48:20.696Z,6.07
2018-09-08T17:50:52.677Z,6.00
2018-09-08T17:53:25.388Z,5.07
2018-09-08T17:55:59.082Z,4.97
2018-09-08T17:58:31.492Z,5.20
2018-09-08T18:01:03.813Z,5.43
2018-09-08T18:03:36.048Z,4.90
2018-09-08T18:06:09.655Z,5.00
2018-09-08T18:08:42.952Z,4.37
2018-09-08T18:11:13.111Z,5.30
2018-09-08T18:13:49.301Z,4.73
2018-09-08T18:16:22.502Z,5.50
2018-09-08T18:18:54.710Z,5.27
2018-09-08T18:21:24.629Z,5.40
2018-09-08T18:23:56.171Z,5.43
2018-09-08T18:26:36.539Z,5.10
2018-09-08T18:29:08.150Z,5.60
2018-09-08T18:31:40.860Z,5.27
2018-09-08T18:34:12.827Z,5.57
2018-09-08T18:36:46.164Z,5.77
2018-09-08T18:39:22.726Z,5.13
2018-09-08T18:41:56.009Z,5.63
2018-09-08T18:44:28.763Z,5.77
2018-09-08T18:47:01.023Z,5.17
2018-09-08T18:49:34.202Z,5.40
2018-09-08T18:52:07.498Z,5.57
2018-09-08T18:54:39.644Z,5.77
2018-09-08T18:57:13.332Z,5.40
2018-09-08T18:59:46.051Z,5.20
2018-09-08T19:02:18.472Z,6.40
2018-09-08T19:04:49.488Z,5.10
2018-09-08T19:07:21.497Z,5.57
2018-09-08T19:09:58.518Z,6.30
2018-09-08T19:12:32.047Z,5.63
2018-09-08T19:15:07.478Z,5.60
2018-09-08T19:17:46.075Z,6.47
2018-09-08T19:20:21.832Z,5.97
2018-09-08T19:22:55.720Z,5.60
2018-09-08T19:25:29.244Z,6.00
2018-09-08T19:28:01.466Z,5.73
2018-09-08T19:30:33.130Z,6.23
2018-09-08T19:33:07.682Z,5.17
2018-09-08T19:35:41.096Z,5.40
2018-09-08T19:38:14.204Z,5.83
2018-09-08T19:40:46.474Z,5.20
2018-09-08T19:43:20.480Z,6.63
2018-09-08T19:45:55.855Z,6.07
2018-09-08T19:48:28.524Z,5.57
2018-09-08T19:51:00.412Z,6.03
2018-09-08T19:53:39.002Z,5.80
2018-09-08T19:56:11.043Z,5.23
2018-09-08T19:58:49.835Z,5.93
2018-09-08T20:01:21.796Z,5.70
2018-09-08T20:03:54.322Z,5.93
2018-09-08T20:06:30.872Z,5.37
2018-09-08T20:09:07.154Z,5.83
2018-09-08T20:11:38.824Z,7.07
2018-09-08T20:14:11.141Z,6.07
2018-09-08T20:16:43.911Z,5.80
2018-09-08T20:19:15.962Z,6.30
2018-09-08T20:21:49.829Z,6.20
2018-09-08T20:24:22.409Z,5.43
2018-09-08T20:26:56.062Z,5.53
2018-09-08T20:29:28.316Z,5.70
2018-09-08T20:32:00.616Z,5.50
2018-09-08T20:34:32.694Z,5.90
2018-09-08T20:37:08.028Z,6.00
2018-09-08T20:39:39.903Z,5.50
2018-09-08T20:42:13.051Z,5.37
2018-09-08T20:44:45.648Z,5.63
2018-09-08T20:47:24.915Z,6.63
2018-09-08T20:49:59.351Z,5.40
2018-09-08T20:52:33.379Z,5.87
2018-09-08T20:55:05.915Z,6.20
2018-09-08T20:57:39.676Z,5.87
2018-09-08T21:00:13.452Z,5.63
2018-09-08T21:02:46.660Z,5.57
2018-09-08T21:05:18.893Z,5.23
2018-09-08T21:07:53.082Z,6.30
2018-09-08T21:10:26.850Z,6.07
2018-09-08T21:12:59.148Z,5.87
2018-09-08T21:15:33.171Z,5.90
2018-09-08T21:18:13.248Z,5.50
2018-09-08T21:20:47.462Z,6.10
2018-09-08T21:23:18.978Z,5.70
2018-09-08T21:25:51.148Z,5.30
2018-09-08T21:28:24.636Z,5.67
2018-09-08T21:30:57.531Z,5.80
2018-09-08T21:33:31.025Z,5.87
2018-09-08T21:36:02.839Z,5.70
2018-09-08T21:38:39.293Z,6.13
2018-09-08T21:41:14.001Z,5.50
2018-09-08T21:43:48.370Z,5.80
2018-09-08T21:46:20.544Z,5.30
2018-09-08T21:48:54.398Z,5.33
2018-09-08T21:51:26.365Z,5.67
2018-09-08T21:54:02.150Z,5.53
2018-09-08T21:56:32.246Z,5.43
2018-09-08T21:59:04.483Z,5.80
2018-09-08T22:01:37.529Z,5.80
2018-09-08T22:04:13.473Z,5.13
2018-09-08T22:06:45.608Z,5.40
2018-09-08T22:09:19.841Z,4.70
2018-09-08T22:11:52.953Z,5.60
2018-09-08T22:14:25.152Z,5.83
2018-09-08T22:16:59.996Z,5.33
2018-09-08T22:19:34.788Z,5.90
2018-09-08T22:22:10.844Z,4.90
2018-09-08T22:24:42.557Z,5.40
2018-09-08T22:27:18.797Z,5.10
2018-09-08T22:29:51.278Z,5.20
2018-09-08T22:32:21.988Z,5.80
2018-09-08T22:34:54.313Z,5.70
2018-09-08T22:37:25.392Z,5.60
2018-09-08T22:39:57.491Z,5.90
2018-09-08T22:42:31.233Z,5.43
2018-09-08T22:45:00.592Z,5.60
2018-09-08T22:47:30.156Z,5.20
2018-09-08T22:49:59.835Z,5.80
2018-09-08T22:52:29.442Z,4.87
2018-09-08T22:54:59.080Z,5.70
2018-09-08T22:57:28.682Z,5.47
2018-09-08T22:59:58.738Z,5.40
2018-09-08T23:02:28.245Z,6.00
2018-09-08T23:04:57.792Z,5.27
2018-09-08T23:07:27.170Z,5.03
2018-09-08T23:09:56.977Z,5.90
2018-09-08T23:12:26.694Z,4.97
2018-09-08T23:14:56.433Z,5.27
2018-09-08T23:17:26.129Z,5.47
2018-09-08T23:19:55.729Z,5.50
2018-09-08T23:22:25.601Z,5.47
2018-09-08T23:24:55.353Z,6.00
2018-09-08T23:27:25.175Z,5.80
2018-09-08T23:29:54.702Z,5.97
2018-09-08T23:32:24.065Z,5.40
2018-09-08T23:34:53.421Z,5.90
2018-09-08T23:37:22.791Z,5.50
2018-09-08T23:39:52.155Z,4.77
2018-09-08T23:42:21.512Z,5.97
2018-09-08T23:44:50.868Z,5.60
2018-09-08T23:47:20.224Z,5.37
2018-09-08T23:49:49.587Z,5.63
2018-09-08T23:52:18.953Z,5.80
2018-09-08T23:54:48.476Z,5.80
2018-09-08T23:57:17.964Z,5.33
2018-09-08T23:59:47.332Z,4.90
